createdAt,value
2022-11-07T00:00:27.782Z,100694.53
2022-11-07T00:02:54.304Z,100701.78
2022-11-07T00:05:20.756Z,100700.41
2022-11-07T00:07:47.149Z,100701.78
2022-11-07T00:10:13.559Z,100693.41
2022-11-07T00:12:39.952Z,100693.44
2022-11-07T00:15:06.610Z,100677.25
2022-11-07T00:17:33.011Z,100684.47
2022-11-07T00:19:59.396Z,100684.47
2022-11-07T00:22:25.964Z,100673.06
2022-11-07T00:24:52.347Z,100675.03
2022-11-07T00:27:18.804Z,100680.06
2022-11-07T00:29:45.262Z,100670.00
2022-11-07T00:32:11.726Z,100676.66
2022-11-07T00:34:38.138Z,100674.44
2022-11-07T00:37:04.528Z,100663.28
2022-11-07T00:39:30.933Z,100668.03
2022-11-07T00:41:57.389Z,100669.97
2022-11-07T00:44:24.735Z,100674.19
2022-11-07T00:46:51.130Z,100674.72
2022-11-07T00:49:17.757Z,100673.06
2022-11-07T00:51:44.130Z,100678.66
2022-11-07T00:54:10.648Z,100676.72
2022-11-07T00:56:37.039Z,100684.53
2022-11-07T00:59:03.437Z,100671.97
2022-11-07T01:01:32.722Z,100671.41
2022-11-07T01:04:17.920Z,100671.97
2022-11-07T01:06:45.480Z,100676.75
2022-11-07T01:09:15.356Z,100695.41
2022-11-07T01:11:42.331Z,100679.53
2022-11-07T01:14:09.897Z,100680.66
2022-11-07T01:16:38.786Z,100685.13
2022-11-07T01:19:06.774Z,100680.13
2022-11-07T01:21:33.391Z,100668.69
2022-11-07T01:24:00.311Z,100661.72
2022-11-07T01:26:27.172Z,100669.81
2022-11-07T01:28:53.561Z,100662.25
2022-11-07T01:31:20.105Z,100662.00
2022-11-07T01:33:46.513Z,100674.56
2022-11-07T01:36:15.784Z,100664.75
2022-11-07T01:38:46.235Z,100663.66
2022-11-07T01:41:22.314Z,100661.13
2022-11-07T01:44:23.918Z,100660.03
2022-11-07T01:46:52.314Z,100671.19
2022-11-07T01:49:26.223Z,100663.09
2022-11-07T01:52:04.159Z,100665.63
2022-11-07T01:54:35.521Z,100671.19
2022-11-07T01:57:07.616Z,100661.16
2022-11-07T01:59:36.941Z,100667.00
2022-11-07T02:02:04.035Z,100674.56
2022-11-07T02:04:31.223Z,100674.56
2022-11-07T02:07:04.417Z,100671.47
2022-11-07T02:09:31.352Z,100672.31
2022-11-07T02:12:00.950Z,100667.28
2022-11-07T02:14:28.464Z,100665.06
2022-11-07T02:16:55.157Z,100668.94
2022-11-07T02:19:33.138Z,100658.09
2022-11-07T02:22:04.341Z,100661.47
2022-11-07T02:24:34.829Z,100660.06
2022-11-07T02:27:06.102Z,100658.38
2022-11-07T02:29:35.612Z,100663.94
2022-11-07T02:32:08.103Z,100659.47
2022-11-07T02:34:35.389Z,100651.69
2022-11-07T02:37:04.831Z,100660.84
2022-11-07T02:39:31.434Z,100658.91
2022-11-07T02:42:00.837Z,100662.28
2022-11-07T02:44:29.484Z,100671.78
2022-11-07T02:46:56.543Z,100661.72
2022-11-07T02:49:22.982Z,100665.06
2022-11-07T02:51:49.357Z,100654.19
2022-11-07T02:54:15.746Z,100661.47
2022-11-07T02:56:42.113Z,100661.75
2022-11-07T02:59:08.502Z,100664.53
2022-11-07T03:01:35.080Z,100662.56
2022-11-07T03:04:01.553Z,100665.06
2022-11-07T03:06:27.950Z,100666.50
2022-11-07T03:08:54.337Z,100670.66
2022-11-07T03:11:20.754Z,100674.00
2022-11-07T03:13:48.408Z,100675.97
2022-11-07T03:16:16.830Z,100676.81
2022-11-07T03:18:43.448Z,100675.13
2022-11-07T03:21:09.849Z,100688.81
2022-11-07T03:23:36.531Z,100693.56
2022-11-07T03:26:03.633Z,100698.88
2022-11-07T03:28:30.100Z,100701.94
2022-11-07T03:31:00.796Z,100693.56
2022-11-07T03:33:28.853Z,100708.63
2022-11-07T03:35:55.240Z,100713.94
2022-11-07T03:38:21.658Z,100703.91
2022-11-07T03:40:48.300Z,100705.03
2022-11-07T03:43:15.073Z,100711.19
2022-11-07T03:45:41.769Z,100711.72
2022-11-07T03:48:08.169Z,100712.28
2022-11-07T03:50:34.605Z,100712.28
2022-11-07T03:53:01.005Z,100704.47
2022-11-07T03:55:27.394Z,100719.00
2022-11-07T03:57:53.780Z,100709.22
2022-11-07T04:00:20.228Z,100710.31
2022-11-07T04:02:46.807Z,100706.97
2022-11-07T04:05:13.360Z,100710.06
2022-11-07T04:07:39.749Z,100706.44
2022-11-07T04:10:06.615Z,100706.97
2022-11-07T04:13:08.413Z,100713.97
2022-11-07T04:15:53.648Z,100717.59
2022-11-07T04:18:20.057Z,100722.63
2022-11-07T04:20:46.439Z,100719.81
2022-11-07T04:23:13.110Z,100722.34
2022-11-07T04:25:58.374Z,100728.75
2022-11-07T04:28:24.786Z,100733.81
2022-11-07T04:30:51.295Z,100727.66
2022-11-07T04:33:17.898Z,100733.50
2022-11-07T04:35:44.414Z,100736.31
2022-11-07T04:38:10.826Z,100739.66
2022-11-07T04:40:37.207Z,100739.09
2022-11-07T04:43:08.962Z,100738.53
2022-11-07T04:45:37.003Z,100747.78
2022-11-07T04:48:03.835Z,100755.03
2022-11-07T04:50:30.385Z,100746.09
2022-11-07T04:52:56.913Z,100744.97
2022-11-07T04:55:26.787Z,100751.09
2022-11-07T04:57:53.535Z,100761.44
2022-11-07T05:00:21.044Z,100765.63
2022-11-07T05:02:49.308Z,100758.09
2022-11-07T05:05:17.461Z,100768.16
2022-11-07T05:07:44.448Z,100763.97
2022-11-07T05:10:19.735Z,100758.09
2022-11-07T05:12:46.186Z,100761.16
2022-11-07T05:15:12.817Z,100754.75
2022-11-07T05:17:39.303Z,100759.22
2022-11-07T05:20:06.149Z,100764.25
2022-11-07T05:22:56.011Z,100753.66
2022-11-07T05:25:22.757Z,100754.19
2022-11-07T05:27:49.144Z,100756.44
2022-11-07T05:30:15.556Z,100761.72
2022-11-07T05:32:42.171Z,100769.84
2022-11-07T05:35:08.983Z,100763.13
2022-11-07T05:37:35.382Z,100769.53
2022-11-07T05:40:01.779Z,100769.84
2022-11-07T05:42:28.270Z,100773.47
2022-11-07T05:44:54.642Z,100780.72
2022-11-07T05:47:21.038Z,100781.84
2022-11-07T05:49:47.426Z,100786.88
2022-11-07T05:52:13.843Z,100784.09
2022-11-07T05:54:40.237Z,100782.97
2022-11-07T05:57:06.638Z,100786.88
2022-11-07T05:59:33.029Z,100784.09
2022-11-07T06:01:59.542Z,100790.78
2022-11-07T06:04:26.036Z,100794.72
2022-11-07T06:06:52.440Z,100790.25
2022-11-07T06:09:18.832Z,100787.41
2022-11-07T06:11:45.230Z,100795.25
2022-11-07T06:14:11.634Z,100791.06
2022-11-07T06:16:38.017Z,100796.09
2022-11-07T06:19:04.448Z,100801.69
2022-11-07T06:21:31.218Z,100803.38
2022-11-07T06:23:58.028Z,100806.16
2022-11-07T06:26:24.408Z,100806.44
2022-11-07T06:28:50.793Z,100809.22
2022-11-07T06:31:17.202Z,100811.75
2022-11-07T06:33:43.602Z,100808.69
2022-11-07T06:36:12.319Z,100805.03
2022-11-07T06:38:39.653Z,100813.97
2022-11-07T06:41:14.035Z,100813.97
2022-11-07T06:43:41.061Z,100812.88
2022-11-07T06:46:10.608Z,100813.72
2022-11-07T06:48:37.572Z,100809.78
2022-11-07T06:51:05.784Z,100827.69
2022-11-07T06:53:32.765Z,100819.88
2022-11-07T06:56:00.014Z,100817.91
2022-11-07T06:58:26.411Z,100828.00
2022-11-07T07:00:53.488Z,100815.41
2022-11-07T07:03:19.933Z,100822.97
2022-11-07T07:05:46.391Z,100823.53
2022-11-07T07:08:14.035Z,100836.94
2022-11-07T07:10:44.031Z,100831.34
2022-11-07T07:13:11.129Z,100822.97
2022-11-07T07:15:52.701Z,100831.63
2022-11-07T07:18:19.954Z,100837.47
2022-11-07T07:20:47.386Z,100844.47
2022-11-07T07:23:13.857Z,100840.56
2022-11-07T07:25:40.240Z,100832.72
2022-11-07T07:28:06.638Z,100841.38
2022-11-07T07:30:33.243Z,100838.31
2022-11-07T07:32:59.696Z,100835.50
2022-11-07T07:35:26.093Z,100841.41
2022-11-07T07:37:52.768Z,100836.09
2022-11-07T07:40:20.220Z,100833.56
2022-11-07T07:42:46.636Z,100838.31
2022-11-07T07:45:15.102Z,100834.94
2022-11-07T07:47:42.059Z,100828.22
2022-11-07T07:50:10.746Z,100827.94
2022-11-07T07:52:37.491Z,100833.22
2022-11-07T07:55:04.534Z,100836.28
2022-11-07T07:57:30.924Z,100828.19
2022-11-07T07:59:57.335Z,100832.06
2022-11-07T08:02:23.816Z,100842.13
2022-11-07T08:04:50.259Z,100838.81
2022-11-07T08:07:16.655Z,100843.56
2022-11-07T08:09:43.047Z,100843.00
2022-11-07T08:12:09.475Z,100841.25
2022-11-07T08:14:36.150Z,100841.53
2022-11-07T08:17:02.929Z,100839.28
2022-11-07T08:19:29.488Z,100839.00
2022-11-07T08:21:55.880Z,100844.88
2022-11-07T08:24:22.301Z,100840.34
2022-11-07T08:26:48.701Z,100848.75
2022-11-07T08:29:15.077Z,100848.97
2022-11-07T08:31:41.477Z,100846.16
2022-11-07T08:34:07.934Z,100844.44
2022-11-07T08:36:34.365Z,100849.19
2022-11-07T08:39:00.778Z,100848.88
2022-11-07T08:41:27.198Z,100858.38
2022-11-07T08:43:53.585Z,100845.19
2022-11-07T08:46:19.981Z,100854.09
2022-11-07T08:48:46.387Z,100855.25
2022-11-07T08:51:12.785Z,100867.81
2022-11-07T08:53:39.171Z,100858.81
2022-11-07T08:56:08.197Z,100851.50
2022-11-07T08:58:35.575Z,100857.38
2022-11-07T09:01:05.933Z,100857.31
2022-11-07T09:03:55.047Z,100858.38
2022-11-07T09:06:20.866Z,100851.69
2022-11-07T09:08:47.327Z,100866.28
2022-11-07T09:11:15.745Z,100860.31
2022-11-07T09:13:42.385Z,100864.53
2022-11-07T09:16:08.787Z,100860.59
2022-11-07T09:18:35.195Z,100869.81
2022-11-07T09:21:01.591Z,100866.69
2022-11-07T09:23:28.139Z,100868.91
2022-11-07T09:25:54.918Z,100873.38
2022-11-07T09:28:21.344Z,100869.09
2022-11-07T09:30:53.417Z,100871.00
2022-11-07T09:33:20.100Z,100867.84
2022-11-07T09:35:47.958Z,100863.56
2022-11-07T09:38:15.502Z,100875.94
2022-11-07T09:40:47.590Z,100875.41
2022-11-07T09:43:26.052Z,100870.56
2022-11-07T09:46:15.208Z,100868.56
2022-11-07T09:48:46.593Z,100866.63
2022-11-07T09:51:19.000Z,100870.41
2022-11-07T09:53:55.003Z,100877.66
2022-11-07T09:56:21.622Z,100868.75
2022-11-07T09:58:54.625Z,100877.34
2022-11-07T10:01:21.878Z,100880.34
2022-11-07T10:04:18.127Z,100875.28
2022-11-07T10:06:49.219Z,100885.63
2022-11-07T10:09:24.625Z,100876.00
2022-11-07T10:12:18.794Z,100874.97
2022-11-07T10:15:03.453Z,100870.03
2022-11-07T10:17:49.177Z,100875.28
2022-11-07T10:20:32.995Z,100874.41
2022-11-07T10:23:16.062Z,100881.47
2022-11-07T10:25:52.796Z,100885.31
2022-11-07T10:28:20.770Z,100893.31
2022-11-07T10:30:52.877Z,100890.16
2022-11-07T10:33:39.728Z,100885.53
2022-11-07T10:36:22.910Z,100881.88
2022-11-07T10:38:49.562Z,100887.06
2022-11-07T10:41:18.603Z,100872.09
2022-11-07T10:43:49.714Z,100866.31
2022-11-07T10:46:24.567Z,100872.41
2022-11-07T10:48:59.894Z,100874.69
2022-11-07T10:51:42.614Z,100870.13
2022-11-07T10:54:29.494Z,100872.34
2022-11-07T10:57:04.220Z,100876.44
2022-11-07T10:59:36.209Z,100869.13
2022-11-07T11:02:18.052Z,100868.44
2022-11-07T11:04:51.093Z,100868.16
2022-11-07T11:07:17.809Z,100865.25
2022-11-07T11:09:56.123Z,100864.03
2022-11-07T11:12:34.040Z,100859.44
2022-11-07T11:15:15.620Z,100870.09
2022-11-07T11:17:42.348Z,100852.38
2022-11-07T11:20:44.056Z,100867.09
2022-11-07T11:23:19.750Z,100863.38
2022-11-07T11:25:48.731Z,100858.38
2022-11-07T11:28:27.907Z,100854.81
2022-11-07T11:31:02.933Z,100862.03
2022-11-07T11:33:41.659Z,100863.06
2022-11-07T11:36:19.314Z,100854.19
2022-11-07T11:38:54.209Z,100864.41
2022-11-07T11:41:41.059Z,100858.97
2022-11-07T11:44:19.503Z,100851.91
2022-11-07T11:46:53.987Z,100854.31
2022-11-07T11:49:48.591Z,100854.63
2022-11-07T11:52:18.867Z,100852.88
2022-11-07T11:54:46.013Z,100846.28
2022-11-07T11:57:26.995Z,100852.06
2022-11-07T12:00:16.146Z,100843.19
2022-11-07T12:03:11.756Z,100847.66
2022-11-07T12:06:05.173Z,100847.88
2022-11-07T12:08:42.878Z,100847.03
2022-11-07T12:11:31.504Z,100851.00
2022-11-07T12:14:12.695Z,100845.69
2022-11-07T12:16:57.251Z,100843.81
2022-11-07T12:19:30.019Z,100843.00
2022-11-07T12:22:09.531Z,100838.09
2022-11-07T12:25:23.683Z,100846.53
2022-11-07T12:28:02.004Z,100843.00
2022-11-07T12:31:03.589Z,100850.81
2022-11-07T12:33:45.888Z,100850.28
2022-11-07T12:36:34.667Z,100849.03
2022-11-07T12:39:27.740Z,100848.81
2022-11-07T12:42:07.418Z,100853.19
2022-11-07T12:44:47.930Z,100853.63
2022-11-07T12:47:33.851Z,100851.53
2022-11-07T12:50:26.965Z,100854.47
2022-11-07T12:53:10.774Z,100854.56
2022-11-07T12:55:44.196Z,100855.72
2022-11-07T12:58:31.589Z,100849.84
2022-11-07T13:00:59.514Z,100847.66
2022-11-07T13:03:38.782Z,100855.63
2022-11-07T13:06:23.163Z,100855.72
2022-11-07T13:09:14.457Z,100859.75
2022-11-07T13:11:55.967Z,100856.94
2022-11-07T13:14:28.393Z,100857.25
2022-11-07T13:16:57.849Z,100855.38
2022-11-07T13:19:37.854Z,100843.72
2022-11-07T13:22:26.010Z,100859.25
2022-11-07T13:25:13.405Z,100859.56
2022-11-07T13:27:44.001Z,100854.66
2022-11-07T13:30:21.089Z,100850.69
2022-11-07T13:32:51.450Z,100853.38
2022-11-07T13:35:23.535Z,100859.16
2022-11-07T13:38:16.163Z,100859.25
2022-11-07T13:41:03.874Z,100854.75
2022-11-07T13:43:43.202Z,100860.72
2022-11-07T13:46:19.181Z,100859.75
2022-11-07T13:48:57.971Z,100859.66
2022-11-07T13:51:46.136Z,100860.91
2022-11-07T13:54:35.603Z,100855.72
2022-11-07T13:57:13.438Z,100858.75
2022-11-07T13:59:47.731Z,100854.25
2022-11-07T14:02:24.585Z,100852.66
2022-11-07T14:05:15.172Z,100853.28
2022-11-07T14:07:47.472Z,100853.09
2022-11-07T14:10:22.880Z,100850.78
2022-11-07T14:13:01.858Z,100858.81
2022-11-07T14:15:29.723Z,100857.47
2022-11-07T14:17:56.480Z,100854.53
2022-11-07T14:20:22.919Z,100850.25
2022-11-07T14:23:00.639Z,100842.53
2022-11-07T14:25:32.693Z,100837.53
2022-11-07T14:28:00.047Z,100844.41
2022-11-07T14:30:29.181Z,100844.44
2022-11-07T14:32:58.228Z,100840.53
2022-11-07T14:35:27.857Z,100841.91
2022-11-07T14:37:54.287Z,100841.59
2022-11-07T14:40:20.690Z,100839.72
2022-11-07T14:42:48.076Z,100843.81
2022-11-07T14:45:33.066Z,100837.72
2022-11-07T14:48:05.098Z,100835.66
2022-11-07T14:50:31.508Z,100830.00
2022-11-07T14:53:06.360Z,100827.81
2022-11-07T14:55:45.670Z,100838.34
2022-11-07T14:58:12.294Z,100827.81
2022-11-07T15:00:39.345Z,100837.00
2022-11-07T15:03:05.716Z,100839.81
2022-11-07T15:05:38.237Z,100838.34
2022-11-07T15:08:04.830Z,100835.00
2022-11-07T15:10:34.312Z,100834.09
2022-11-07T15:13:04.470Z,100833.56
2022-11-07T15:15:36.806Z,100838.69
2022-11-07T15:18:05.677Z,100837.00
2022-11-07T15:20:34.926Z,100836.06
2022-11-07T15:23:25.665Z,100832.50
2022-11-07T15:26:01.159Z,100839.59
2022-11-07T15:28:28.702Z,100839.50
2022-11-07T15:31:00.305Z,100847.50
2022-11-07T15:33:31.703Z,100844.16
2022-11-07T15:36:01.505Z,100848.25
2022-11-07T15:38:29.405Z,100838.78
2022-11-07T15:40:55.905Z,100845.22
2022-11-07T15:43:22.439Z,100844.69
2022-11-07T15:45:51.413Z,100843.03
2022-11-07T15:48:21.417Z,100844.28
2022-11-07T15:50:49.183Z,100853.31
2022-11-07T15:53:19.775Z,100849.59
2022-11-07T15:55:47.089Z,100854.38
2022-11-07T15:58:15.403Z,100845.03
2022-11-07T16:00:42.323Z,100852.41
2022-11-07T16:03:16.637Z,100855.22
2022-11-07T16:05:45.149Z,100856.75
2022-11-07T16:08:19.809Z,100857.00
2022-11-07T16:10:53.086Z,100862.72
2022-11-07T16:13:19.498Z,100863.47
2022-11-07T16:15:48.853Z,100867.28
2022-11-07T16:18:21.539Z,100864.28
2022-11-07T16:20:49.019Z,100865.56
2022-11-07T16:23:16.116Z,100864.09
2022-11-07T16:25:45.222Z,100874.19
2022-11-07T16:28:23.220Z,100866.44
2022-11-07T16:30:50.369Z,100870.03
2022-11-07T16:33:17.302Z,100872.16
2022-11-07T16:35:43.834Z,100863.63
2022-11-07T16:38:15.648Z,100871.25
2022-11-07T16:40:42.535Z,100867.69
2022-11-07T16:43:09.117Z,100877.97
2022-11-07T16:45:37.054Z,100871.47
2022-11-07T16:48:05.245Z,100883.03
2022-11-07T16:50:32.197Z,100868.38
2022-11-07T16:52:58.576Z,100875.84
2022-11-07T16:55:24.966Z,100876.81
2022-11-07T16:57:51.337Z,100874.13
2022-11-07T17:00:18.860Z,100876.66
2022-11-07T17:02:45.449Z,100883.25
2022-11-07T17:05:12.211Z,100894.97
2022-11-07T17:07:38.869Z,100897.19
2022-11-07T17:10:05.720Z,100895.81
2022-11-07T17:12:32.084Z,100888.53
2022-11-07T17:14:58.458Z,100890.94
2022-11-07T17:17:24.842Z,100898.41
2022-11-07T17:19:51.246Z,100893.06
2022-11-07T17:22:17.775Z,100899.53
2022-11-07T17:24:45.047Z,100896.44
2022-11-07T17:27:24.496Z,100895.59
2022-11-07T17:29:51.976Z,100909.53
2022-11-07T17:32:18.725Z,100903.09
2022-11-07T17:34:45.480Z,100912.41
2022-11-07T17:37:17.404Z,100906.69
2022-11-07T17:39:45.506Z,100914.13
2022-11-07T17:42:13.006Z,100914.06
2022-11-07T17:44:39.896Z,100919.75
2022-11-07T17:47:06.634Z,100912.34
2022-11-07T17:49:33.220Z,100916.03
2022-11-07T17:51:59.602Z,100921.06
2022-11-07T17:54:29.452Z,100925.09
2022-11-07T17:56:56.283Z,100926.69
2022-11-07T17:59:23.316Z,100930.88
2022-11-07T18:01:49.877Z,100924.63
2022-11-07T18:04:16.364Z,100932.84
2022-11-07T18:06:43.294Z,100930.47
2022-11-07T18:09:14.424Z,100928.06
2022-11-07T18:11:40.747Z,100933.38
2022-11-07T18:14:07.301Z,100929.66
2022-11-07T18:16:37.168Z,100933.53
2022-11-07T18:19:05.217Z,100929.66
2022-11-07T18:21:31.953Z,100940.97
2022-11-07T18:23:58.681Z,100933.06
2022-11-07T18:26:33.877Z,100932.53
2022-11-07T18:29:03.192Z,100940.38
2022-11-07T18:31:29.590Z,100934.44
2022-11-07T18:33:58.084Z,100937.53
2022-11-07T18:36:25.793Z,100934.16
2022-11-07T18:38:52.408Z,100937.53
2022-11-07T18:41:21.386Z,100928.66
2022-11-07T18:43:48.199Z,100937.41
2022-11-07T18:46:17.397Z,100935.41
2022-11-07T18:48:43.785Z,100938.69
2022-11-07T18:51:16.250Z,100935.88
2022-11-07T18:53:43.632Z,100937.03
2022-11-07T18:56:12.211Z,100931.91
2022-11-07T18:58:41.197Z,100935.00
2022-11-07T19:01:10.781Z,100933.06
2022-11-07T19:03:37.957Z,100935.06
2022-11-07T19:06:05.882Z,100933.16
2022-11-07T19:08:35.283Z,100938.34
2022-11-07T19:11:04.155Z,100932.38
2022-11-07T19:13:30.565Z,100940.97
2022-11-07T19:16:01.162Z,100940.00
2022-11-07T19:18:27.583Z,100947.81
2022-11-07T19:20:56.550Z,100940.47
2022-11-07T19:23:23.290Z,100936.03
2022-11-07T19:25:50.087Z,100946.66
2022-11-07T19:28:16.602Z,100938.78
2022-11-07T19:30:43.393Z,100943.09
2022-11-07T19:33:11.179Z,100943.19
2022-11-07T19:35:39.181Z,100946.78
2022-11-07T19:38:09.049Z,100937.47
2022-11-07T19:40:38.844Z,100950.41
2022-11-07T19:43:05.705Z,100946.66
2022-11-07T19:45:32.101Z,100946.31
2022-11-07T19:47:58.508Z,100952.56
2022-11-07T19:50:24.900Z,100951.63
2022-11-07T19:52:51.297Z,100952.00
2022-11-07T19:55:17.923Z,100950.84
2022-11-07T19:57:44.293Z,100946.44
2022-11-07T20:00:11.402Z,100945.56
2022-11-07T20:02:43.977Z,100944.72
2022-11-07T20:05:11.134Z,100949.41
2022-11-07T20:07:38.879Z,100948.91
2022-11-07T20:10:06.166Z,100949.59
2022-11-07T20:12:32.850Z,100959.38
2022-11-07T20:14:59.899Z,100952.28
2022-11-07T20:17:26.751Z,100951.72
2022-11-07T20:19:53.128Z,100957.91
2022-11-07T20:22:19.514Z,100954.28
2022-11-07T20:24:45.895Z,100962.50
2022-11-07T20:27:12.326Z,100963.03
2022-11-07T20:29:38.713Z,100965.53
2022-11-07T20:32:05.297Z,100956.25
2022-11-07T20:34:31.710Z,100973.75
2022-11-07T20:36:58.109Z,100971.69
2022-11-07T20:39:24.498Z,100974.13
2022-11-07T20:41:50.930Z,100963.19
2022-11-07T20:44:17.457Z,100979.25
2022-11-07T20:46:45.532Z,100978.22
2022-11-07T20:49:14.369Z,100980.44
2022-11-07T20:51:41.958Z,100984.53
2022-11-07T20:54:12.212Z,100984.78
2022-11-07T20:56:39.238Z,100980.59
2022-11-07T20:59:06.136Z,100986.66
2022-11-07T21:01:36.096Z,100986.66
2022-11-07T21:04:03.818Z,100987.81
2022-11-07T21:06:30.746Z,100993.28
2022-11-07T21:08:57.213Z,100979.59
2022-11-07T21:11:24.140Z,100987.88
2022-11-07T21:13:53.334Z,100991.50
2022-11-07T21:16:24.405Z,100985.19
2022-11-07T21:18:52.003Z,100989.09
2022-11-07T21:21:24.444Z,100986.34
2022-11-07T21:23:51.701Z,100986.56
2022-11-07T21:26:21.900Z,100985.13
2022-11-07T21:28:48.593Z,100985.13
2022-11-07T21:31:18.638Z,100990.13
2022-11-07T21:33:46.155Z,100986.50
2022-11-07T21:36:16.570Z,100987.88
2022-11-07T21:38:44.770Z,100980.72
2022-11-07T21:41:11.514Z,100988.25
2022-11-07T21:43:38.102Z,100988.00
2022-11-07T21:46:31.781Z,100978.63
2022-11-07T21:48:58.392Z,100981.50
2022-11-07T21:51:30.018Z,100978.63
2022-11-07T21:53:57.789Z,100976.97
2022-11-07T21:56:30.122Z,100983.69
2022-11-07T21:58:59.222Z,100984.63
2022-11-07T22:01:26.472Z,100987.13
2022-11-07T22:04:10.118Z,100987.44
2022-11-07T22:06:40.177Z,100982.94
2022-11-07T22:09:08.340Z,100984.69
2022-11-07T22:11:34.751Z,100982.53
2022-11-07T22:14:01.166Z,100980.00
2022-11-07T22:16:27.761Z,100971.78
2022-11-07T22:18:54.366Z,100976.59
2022-11-07T22:21:22.684Z,100980.50
2022-11-07T22:23:49.717Z,100974.75
2022-11-07T22:26:21.803Z,100979.41
2022-11-07T22:28:49.054Z,100973.09
2022-11-07T22:31:18.004Z,100979.03
2022-11-07T22:33:46.082Z,100985.09
2022-11-07T22:36:14.747Z,100981.19
2022-11-07T22:38:41.233Z,100980.31
2022-11-07T22:41:11.549Z,100980.00
2022-11-07T22:43:37.966Z,100982.34
2022-11-07T22:46:07.604Z,100980.06
2022-11-07T22:48:34.611Z,100975.16
2022-11-07T22:51:05.505Z,100975.69
2022-11-07T22:53:32.292Z,100963.88
2022-11-07T22:55:58.844Z,100967.34
2022-11-07T22:58:25.247Z,100974.91
2022-11-07T23:00:51.644Z,100979.03
2022-11-07T23:03:18.325Z,100977.81
2022-11-07T23:05:44.761Z,100977.47
2022-11-07T23:08:11.167Z,100978.31
2022-11-07T23:10:37.582Z,100977.53
2022-11-07T23:13:04.690Z,100974.69
2022-11-07T23:15:31.924Z,100980.06
2022-11-07T23:17:58.590Z,100971.63
2022-11-07T23:20:43.867Z,100970.44
2022-11-07T23:23:10.249Z,100974.66
2022-11-07T23:25:36.849Z,100970.19
2022-11-07T23:28:05.489Z,100974.66
2022-11-07T23:30:31.855Z,100976.63
2022-11-07T23:32:58.237Z,100967.38
2022-11-07T23:35:24.609Z,100964.88
2022-11-07T23:37:50.981Z,100970.84
2022-11-07T23:40:17.356Z,100969.06
2022-11-07T23:42:43.751Z,100958.94
2022-11-07T23:45:29.102Z,100964.56
2022-11-07T23:48:18.443Z,100962.38
2022-11-07T23:51:03.566Z,100958.19
2022-11-07T23:53:55.847Z,100962.72
2022-11-07T23:56:24.752Z,100964.09
2022-11-07T23:59:10.144Z,100961.53
